Historyczne dane pomiarowe

Dodano dane terminowe – wersja testowa.

Dane z okresu 1951-2019

Wersja bazy: 1.34 [2019-03-16, lista zmian], aktualizacja planowana na 2019-04-15

Dane meteo z obszaru Polski uzyskane na podstawie danych udostępnionych przez Instytut Meteorologii i Gospodarki Wodnej – Państwowy Instytut Badawczy.

 

Wybierz Datę:    

       

TemperaturaWilgotnośćWiatrCiśnienieOpadyŚniegCzas trwania zjawisk
 Stacja t tx tn tng RH VA  wxwx mslp ppp RRR   cm mm wxwxwxwxwxwxwx
1975-07-16 22.5 27.7 18.1- 75.5- 6.3 1.7---- 0.0------------
1975-07-17 19.8 25.2 14.8- 75.8- 4.3 2.3---- 0.0------------
1975-07-18 18.6 26.6 9.5- 85.3- 5.0 0.7---- 2.7------------
1975-07-19 20.5 25.8 15.0- 84.5- 6.7 1.0---- 2.7------------
1975-07-20 17.7 22.2 15.0- 90.0- 7.3 2.3---- 0.8------------
1975-07-21 15.4 17.1 14.1- 97.0- 8.0 1.7---- 0.2------------
1975-07-22 18.6 23.1 15.4- 85.5- 7.0 1.3---- 1.8------------
1975-07-23 18.9 26.2 10.8- 80.5- 4.0 1.0---- 0.0------------
1975-07-24 20.9 28.2 13.0- 78.5- 4.0 1.0---- 0.0------------
1975-07-25 18.2 22.5 15.4- 91.3- 7.3 1.0---- 15.0------------
1975-07-26 12.7 16.7 11.5- 95.5- 8.0 1.7---- 0.6------------
1975-07-27 13.6 18.5 10.4- 85.3- 7.0 3.0---- 11.8------------
1975-07-28 13.6 17.1 11.0- 93.0- 7.0 2.3---- 10.0------------
1975-07-29 16.3 17.9 14.2- 96.3- 8.0 2.7---- 18.0------------
1975-07-30 16.8 20.3 14.8- 94.8- 6.7 1.0---- 8.0------------
1975-07-31 18.0 25.2 12.5- 85.3- 3.7 1.7---- 2.3------------
1975-08-01 16.3 24.6 11.5- 93.3- 5.3 1.3---- 34.1------------
1975-08-02 17.7 22.6 14.0- 85.8- 6.0 1.3---- 0.0------------
1975-08-03 15.6 21.1 11.0- 88.0- 6.0 1.3---- 0.0------------
1975-08-04 17.8 23.6 12.5- 81.8- 6.3 1.0---- 0.0------------
1975-08-05 18.7 24.3 13.0- 88.0- 7.3 1.0---- 0.2------------
1975-08-06 18.1 26.2 13.0- 85.5- 6.3 1.0---- 2.9------------
1975-08-07 18.2 23.8 15.9- 91.3- 6.7 1.0---- 13.0------------
1975-08-08 21.1 26.2 15.1- 76.5- 3.7 1.0---- 0.0------------
1975-08-09 20.6 28.4 12.0- 75.0- 3.0 1.0---- 0.0------------
1975-08-10 21.0 27.2 13.5- 80.3- 2.3 1.3---- 0.0------------
1975-08-11 18.7 26.7 12.3- 80.5- 4.3 1.0---- 0.0------------
1975-08-12 17.5 26.9 9.0- 87.0- 3.0 1.3---- 8.0------------
1975-08-13 13.0 17.1 10.6- 81.8- 6.0 2.0---- 0.0------------
1975-08-14 12.0 19.6 2.5- 75.5- 1.7 1.0---- 0.0------------
200.7 ms

 

Źródłem pochodzenia danych jest Instytut Meteorologii i Gospodarki Wodnej – Państwowy Instytut Badawczy. Dane Instytutu Meteorologii i Gospodarki Wodnej – Państwowego Instytutu Badawczego zostały przetworzone.

Dane źródłowe można odnaleźć na stronie https://dane.imgw.pl